createdAt,value
2022-10-18T00:00:15.837Z,15.36
2022-10-18T00:01:15.836Z,15.52
2022-10-18T00:02:15.971Z,15.29
2022-10-18T00:03:15.816Z,15.14
2022-10-18T00:04:15.809Z,14.92
2022-10-18T00:05:15.843Z,14.78
2022-10-18T00:06:15.796Z,14.74
2022-10-18T00:07:15.799Z,14.69
2022-10-18T00:08:15.806Z,14.70
2022-10-18T00:09:15.773Z,14.74
2022-10-18T00:10:15.766Z,14.70
2022-10-18T00:11:15.750Z,14.82
2022-10-18T00:12:15.740Z,14.89
2022-10-18T00:13:15.728Z,14.93
2022-10-18T00:14:15.872Z,14.95
2022-10-18T00:15:15.721Z,14.99
2022-10-18T00:16:15.710Z,15.08
2022-10-18T00:17:16.146Z,15.19
2022-10-18T00:18:15.681Z,15.15
2022-10-18T00:19:15.703Z,15.22
2022-10-18T00:20:15.672Z,15.35
2022-10-18T00:21:15.673Z,15.36
2022-10-18T00:22:15.660Z,15.40
2022-10-18T00:23:15.650Z,15.41
2022-10-18T00:24:15.642Z,15.47
2022-10-18T00:25:15.659Z,15.44
2022-10-18T00:26:15.626Z,15.45
2022-10-18T00:27:15.614Z,15.41
2022-10-18T00:28:15.593Z,15.35
2022-10-18T00:29:15.591Z,15.29
2022-10-18T00:30:15.584Z,15.26
2022-10-18T00:31:15.606Z,15.32
2022-10-18T00:32:15.577Z,15.14
2022-10-18T00:33:15.565Z,15.11
2022-10-18T00:34:15.564Z,14.99
2022-10-18T00:35:15.546Z,14.93
2022-10-18T00:36:15.554Z,14.95
2022-10-18T00:37:15.578Z,14.93
2022-10-18T00:38:15.516Z,14.97
2022-10-18T00:39:15.514Z,15.08
2022-10-18T00:40:15.512Z,15.12
2022-10-18T00:41:15.493Z,15.08
2022-10-18T00:42:15.485Z,15.10
2022-10-18T00:43:15.510Z,15.12
2022-10-18T00:44:15.477Z,15.25
2022-10-18T00:45:15.472Z,15.26
2022-10-18T00:46:15.460Z,15.32
2022-10-18T00:47:15.455Z,15.27
2022-10-18T00:48:15.455Z,15.35
2022-10-18T00:49:15.479Z,15.27
2022-10-18T00:50:15.432Z,15.32
2022-10-18T00:51:15.417Z,15.41
2022-10-18T00:52:15.423Z,15.43
2022-10-18T00:53:15.411Z,15.51
2022-10-18T00:54:15.414Z,15.56
2022-10-18T00:55:15.398Z,15.60
2022-10-18T00:56:15.378Z,15.69
2022-10-18T00:57:15.374Z,15.59
2022-10-18T00:58:15.367Z,15.60
2022-10-18T00:59:15.356Z,15.70
2022-10-18T01:00:15.371Z,15.62
2022-10-18T01:01:15.371Z,15.54
2022-10-18T01:02:15.329Z,15.51
2022-10-18T01:03:15.327Z,15.40
2022-10-18T01:04:15.470Z,15.36
2022-10-18T01:05:15.327Z,15.44
2022-10-18T01:06:15.482Z,15.44
2022-10-18T01:07:15.321Z,15.47
2022-10-18T01:08:15.313Z,15.48
2022-10-18T01:09:15.266Z,15.43
2022-10-18T01:10:15.256Z,15.30
2022-10-18T01:11:15.410Z,15.17
2022-10-18T01:12:15.239Z,15.14
2022-10-18T01:13:15.266Z,14.90
2022-10-18T01:14:15.226Z,14.95
2022-10-18T01:15:15.226Z,14.90
2022-10-18T01:16:15.218Z,14.99
2022-10-18T01:17:15.213Z,14.99
2022-10-18T01:18:15.289Z,14.96
2022-10-18T01:19:15.194Z,14.93
2022-10-18T01:20:15.184Z,14.92
2022-10-18T01:21:15.181Z,14.97
2022-10-18T01:22:15.202Z,15.04
2022-10-18T01:23:15.151Z,15.11
2022-10-18T01:24:15.157Z,15.15
2022-10-18T01:25:15.141Z,15.15
2022-10-18T01:26:15.125Z,15.30
2022-10-18T01:27:15.115Z,15.27
2022-10-18T01:28:15.117Z,15.22
2022-10-18T01:29:15.162Z,15.26
2022-10-18T01:30:15.097Z,15.25
2022-10-18T01:31:15.098Z,15.30
2022-10-18T01:32:15.106Z,15.30
2022-10-18T01:33:15.072Z,15.30
2022-10-18T01:34:15.066Z,15.27
2022-10-18T01:35:15.076Z,15.43
2022-10-18T01:36:15.062Z,15.45
2022-10-18T01:37:15.035Z,15.43
2022-10-18T01:38:15.017Z,15.51
2022-10-18T01:39:15.025Z,15.48
2022-10-18T01:40:15.009Z,15.63
2022-10-18T01:41:15.943Z,15.59
2022-10-18T01:42:14.994Z,15.45
2022-10-18T01:43:14.993Z,15.41
2022-10-18T01:44:14.978Z,15.35
2022-10-18T01:45:14.975Z,15.27
2022-10-18T01:46:14.967Z,15.33
2022-10-18T01:47:14.967Z,15.23
2022-10-18T01:48:14.938Z,15.19
2022-10-18T01:49:14.934Z,15.14
2022-10-18T01:50:14.921Z,15.12
2022-10-18T01:51:14.925Z,15.19
2022-10-18T01:52:14.919Z,15.29
2022-10-18T01:53:14.925Z,15.32
2022-10-18T01:54:14.932Z,15.40
2022-10-18T01:55:14.887Z,15.45
2022-10-18T01:56:14.884Z,15.44
2022-10-18T01:57:14.882Z,15.38
2022-10-18T01:58:14.858Z,15.40
2022-10-18T01:59:14.879Z,15.36
2022-10-18T02:00:14.841Z,15.25
2022-10-18T02:01:14.866Z,15.08
2022-10-18T02:02:14.854Z,15.03
2022-10-18T02:03:14.826Z,14.89
2022-10-18T02:04:14.995Z,14.77
2022-10-18T02:05:14.827Z,14.71
2022-10-18T02:06:14.792Z,14.78
2022-10-18T02:07:14.786Z,14.59
2022-10-18T02:08:22.933Z,14.51
2022-10-18T02:09:15.770Z,14.55
2022-10-18T02:11:14.763Z,14.63
2022-10-18T02:12:14.747Z,14.58
2022-10-18T02:13:14.766Z,14.66
2022-10-18T02:14:14.817Z,14.58
2022-10-18T02:15:14.731Z,14.69
2022-10-18T02:16:14.773Z,14.66
2022-10-18T02:17:14.709Z,14.61
2022-10-18T02:18:14.696Z,14.64
2022-10-18T02:19:14.872Z,14.53
2022-10-18T02:20:14.674Z,14.58
2022-10-18T02:21:14.695Z,14.49
2022-10-18T02:22:14.675Z,14.45
2022-10-18T02:23:14.669Z,14.45
2022-10-18T02:24:14.714Z,14.53
2022-10-18T02:25:14.630Z,14.40
2022-10-18T02:26:14.649Z,14.40
2022-10-18T02:27:14.656Z,14.48
2022-10-18T02:28:14.626Z,14.45
2022-10-18T02:29:14.705Z,14.46
2022-10-18T02:30:14.597Z,14.40
2022-10-18T02:31:14.580Z,14.46
2022-10-18T02:32:14.577Z,14.51
2022-10-18T02:33:14.589Z,14.51
2022-10-18T02:34:14.597Z,14.59
2022-10-18T02:35:14.556Z,14.61
2022-10-18T02:36:14.541Z,14.64
2022-10-18T02:37:14.608Z,14.71
2022-10-18T02:38:14.521Z,14.55
2022-10-18T02:39:14.686Z,14.58
2022-10-18T02:40:14.525Z,14.63
2022-10-18T02:41:14.497Z,14.74
2022-10-18T02:42:14.514Z,14.73
2022-10-18T02:43:14.491Z,14.69
2022-10-18T02:44:14.489Z,14.78
2022-10-18T02:45:14.479Z,14.66
2022-10-18T02:46:14.522Z,14.77
2022-10-18T02:47:14.455Z,14.74
2022-10-18T02:48:14.470Z,14.77
2022-10-18T02:49:14.459Z,14.71
2022-10-18T02:50:14.426Z,14.70
2022-10-18T02:51:14.402Z,14.77
2022-10-18T02:52:14.400Z,14.70
2022-10-18T02:53:14.392Z,14.82
2022-10-18T02:54:14.386Z,14.77
2022-10-18T02:55:14.435Z,14.70
2022-10-18T02:56:14.375Z,14.78
2022-10-18T02:57:14.375Z,14.83
2022-10-18T02:58:14.354Z,14.74
2022-10-18T02:59:14.347Z,14.83
2022-10-18T03:00:14.358Z,14.89
2022-10-18T03:01:14.375Z,14.89
2022-10-18T03:02:14.332Z,14.93
2022-10-18T03:03:14.317Z,14.78
2022-10-18T03:04:14.437Z,14.87
2022-10-18T03:05:14.302Z,14.82
2022-10-18T03:06:14.316Z,14.79
2022-10-18T03:07:14.286Z,14.83
2022-10-18T03:08:14.282Z,14.83
2022-10-18T03:09:14.257Z,14.86
2022-10-18T03:10:14.250Z,14.83
2022-10-18T03:11:14.271Z,14.87
2022-10-18T03:12:14.235Z,14.83
2022-10-18T03:13:14.242Z,14.92
2022-10-18T03:14:14.227Z,14.97
2022-10-18T03:15:14.219Z,14.97
2022-10-18T03:16:14.245Z,14.96
2022-10-18T03:17:14.232Z,15.14
2022-10-18T03:18:14.204Z,15.19
2022-10-18T03:19:14.189Z,15.17
2022-10-18T03:20:14.188Z,15.23
2022-10-18T03:21:14.168Z,15.29
2022-10-18T03:22:14.160Z,15.23
2022-10-18T03:23:14.170Z,15.30
2022-10-18T03:24:14.152Z,15.33
2022-10-18T03:25:14.131Z,15.36
2022-10-18T03:26:14.149Z,15.29
2022-10-18T03:27:14.123Z,15.33
2022-10-18T03:28:14.111Z,15.30
2022-10-18T03:29:14.131Z,15.45
2022-10-18T03:30:14.105Z,15.36
2022-10-18T03:31:14.090Z,15.35
2022-10-18T03:32:14.084Z,15.43
2022-10-18T03:33:14.074Z,15.48
2022-10-18T03:34:14.075Z,15.47
2022-10-18T03:35:14.074Z,15.47
2022-10-18T03:36:14.046Z,15.47
2022-10-18T03:37:14.027Z,15.44
2022-10-18T03:38:14.027Z,15.44
2022-10-18T03:39:14.016Z,15.45
2022-10-18T03:40:14.025Z,15.48
2022-10-18T03:41:14.030Z,15.58
2022-10-18T03:42:13.996Z,15.52
2022-10-18T03:43:13.990Z,15.65
2022-10-18T03:44:13.981Z,15.68
2022-10-18T03:45:13.966Z,15.52
2022-10-18T03:46:13.988Z,15.51
2022-10-18T03:47:13.953Z,15.47
2022-10-18T03:48:13.941Z,15.41
2022-10-18T03:49:13.932Z,15.19
2022-10-18T03:50:13.934Z,15.19
2022-10-18T03:51:13.920Z,15.15
2022-10-18T03:52:13.937Z,15.20
2022-10-18T03:53:13.898Z,15.14
2022-10-18T03:54:13.900Z,15.23
2022-10-18T03:55:13.888Z,15.19
2022-10-18T03:56:13.895Z,15.19
2022-10-18T03:57:13.868Z,15.11
2022-10-18T03:58:13.878Z,15.01
2022-10-18T03:59:13.849Z,15.01
2022-10-18T04:00:13.844Z,15.04
2022-10-18T04:01:13.869Z,15.01
2022-10-18T04:02:13.834Z,14.99
2022-10-18T04:03:13.840Z,15.08
2022-10-18T04:04:13.805Z,15.03
2022-10-18T04:05:13.814Z,15.17
2022-10-18T04:06:13.802Z,15.26
2022-10-18T04:07:13.778Z,15.43
2022-10-18T04:08:13.776Z,15.47
2022-10-18T04:09:13.790Z,15.43
2022-10-18T04:10:13.755Z,15.52
2022-10-18T04:11:13.753Z,15.32
2022-10-18T04:12:13.752Z,15.25
2022-10-18T04:13:13.739Z,15.30
2022-10-18T04:14:13.723Z,15.26
2022-10-18T04:15:13.739Z,15.33
2022-10-18T04:16:13.709Z,15.26
2022-10-18T04:17:13.692Z,15.40
2022-10-18T04:18:13.747Z,15.30
2022-10-18T04:19:13.678Z,15.45
2022-10-18T04:20:13.705Z,15.44
2022-10-18T04:21:13.667Z,15.32
2022-10-18T04:22:13.658Z,15.29
2022-10-18T04:23:13.642Z,15.22
2022-10-18T04:24:13.640Z,15.15
2022-10-18T04:25:13.649Z,15.25
2022-10-18T04:26:13.648Z,15.41
2022-10-18T04:27:13.617Z,15.41
2022-10-18T04:28:13.617Z,15.48
2022-10-18T04:29:13.619Z,15.54
2022-10-18T04:30:13.596Z,15.59
2022-10-18T04:31:19.559Z,15.52
2022-10-18T04:32:14.603Z,15.51
2022-10-18T04:33:13.570Z,15.47
2022-10-18T04:34:13.593Z,15.48
2022-10-18T04:35:13.551Z,15.45
2022-10-18T04:36:13.546Z,15.72
2022-10-18T04:37:13.537Z,15.69
2022-10-18T04:38:13.531Z,15.69
2022-10-18T04:39:13.515Z,15.68
2022-10-18T04:40:13.539Z,15.69
2022-10-18T04:41:13.513Z,15.72
2022-10-18T04:42:13.501Z,15.72
2022-10-18T04:43:13.485Z,15.84
2022-10-18T04:44:13.514Z,15.83
2022-10-18T04:45:13.470Z,15.87
2022-10-18T04:46:13.481Z,15.84
2022-10-18T04:47:13.449Z,15.84
2022-10-18T04:48:13.481Z,15.93
2022-10-18T04:49:13.454Z,15.90
2022-10-18T04:50:13.433Z,15.90
2022-10-18T04:51:13.431Z,15.88
2022-10-18T04:52:13.413Z,15.81
2022-10-18T04:53:13.462Z,15.80
2022-10-18T04:54:13.400Z,15.77
2022-10-18T04:55:13.398Z,15.78
2022-10-18T04:56:13.394Z,15.77
2022-10-18T04:57:13.398Z,15.76
2022-10-18T04:58:13.388Z,15.88
2022-10-18T04:59:13.358Z,15.87
2022-10-18T05:00:13.379Z,15.85
2022-10-18T05:01:13.359Z,15.87
2022-10-18T05:02:13.332Z,15.85
2022-10-18T05:03:13.321Z,15.90
2022-10-18T05:04:13.343Z,15.84
2022-10-18T05:05:14.243Z,15.80
2022-10-18T05:06:13.380Z,15.77
2022-10-18T05:07:13.303Z,15.83
2022-10-18T05:08:13.300Z,15.77
2022-10-18T05:09:13.274Z,15.76
2022-10-18T05:10:13.290Z,15.73
2022-10-18T05:11:13.291Z,15.81
2022-10-18T05:12:13.255Z,15.84
2022-10-18T05:13:13.236Z,15.78
2022-10-18T05:14:13.240Z,15.80
2022-10-18T05:15:13.227Z,15.88
2022-10-18T05:16:13.219Z,15.88
2022-10-18T05:17:13.228Z,15.95
2022-10-18T05:18:13.210Z,15.95
2022-10-18T05:19:13.189Z,15.88
2022-10-18T05:21:13.175Z,15.84
2022-10-18T05:22:13.183Z,15.81
2022-10-18T05:23:13.231Z,15.77
2022-10-18T05:24:13.191Z,15.85
2022-10-18T05:25:13.148Z,15.96
2022-10-18T05:26:13.151Z,15.90
2022-10-18T05:27:13.170Z,15.91
2022-10-18T05:28:38.205Z,15.84
2022-10-18T05:29:14.202Z,15.78
2022-10-18T05:30:13.116Z,15.66
2022-10-18T05:31:13.096Z,15.68
2022-10-18T05:32:13.095Z,15.58
2022-10-18T05:33:13.084Z,15.60
2022-10-18T05:34:13.083Z,15.48
2022-10-18T05:35:13.099Z,15.41
2022-10-18T05:36:13.080Z,15.38
2022-10-18T05:37:13.069Z,15.41
2022-10-18T05:38:13.047Z,15.44
2022-10-18T05:39:13.048Z,15.40
2022-10-18T05:40:13.045Z,15.36
2022-10-18T05:41:13.061Z,15.41
2022-10-18T05:42:13.011Z,15.33
2022-10-18T05:43:12.997Z,15.35
2022-10-18T05:44:13.036Z,15.30
2022-10-18T05:45:12.973Z,15.44
2022-10-18T05:46:15.349Z,15.40
2022-10-18T05:47:12.973Z,15.35
2022-10-18T05:48:12.994Z,15.35
2022-10-18T05:49:12.955Z,15.40
2022-10-18T05:50:12.940Z,15.36
2022-10-18T05:51:12.930Z,15.43
2022-10-18T05:52:12.962Z,15.33
2022-10-18T05:54:13.901Z,15.40
2022-10-18T05:55:12.892Z,15.38
2022-10-18T05:56:12.881Z,15.36
2022-10-18T05:57:12.880Z,15.43
2022-10-18T05:58:12.889Z,15.48
2022-10-18T05:59:12.879Z,15.44
2022-10-18T06:00:12.860Z,15.29
2022-10-18T06:01:12.846Z,15.35
2022-10-18T06:02:12.914Z,15.40
2022-10-18T06:03:12.825Z,15.44
2022-10-18T06:04:12.871Z,15.33
2022-10-18T06:05:12.816Z,15.35
2022-10-18T06:06:12.831Z,15.27
2022-10-18T06:07:12.823Z,15.22
2022-10-18T06:08:12.786Z,15.27
2022-10-18T06:09:12.760Z,15.22
2022-10-18T06:10:12.760Z,15.27
2022-10-18T06:11:12.759Z,15.25
2022-10-18T06:12:12.744Z,15.32
2022-10-18T06:13:12.764Z,15.32
2022-10-18T06:14:12.760Z,15.35
2022-10-18T06:15:12.735Z,15.40
2022-10-18T06:16:12.886Z,15.40
2022-10-18T06:17:12.716Z,15.40
2022-10-18T06:18:12.712Z,15.45
2022-10-18T06:19:12.711Z,15.35
2022-10-18T06:20:12.689Z,15.48
2022-10-18T06:21:12.690Z,15.47
2022-10-18T06:22:12.694Z,15.47
2022-10-18T06:23:12.661Z,15.51
2022-10-18T06:24:12.651Z,15.47
2022-10-18T06:25:12.646Z,15.43
2022-10-18T06:26:12.634Z,15.43
2022-10-18T06:27:12.631Z,15.43
2022-10-18T06:28:12.637Z,15.40
2022-10-18T06:29:12.658Z,15.30
2022-10-18T06:30:12.609Z,15.32
2022-10-18T06:31:12.599Z,15.35
2022-10-18T06:32:12.589Z,15.35
2022-10-18T06:33:14.270Z,15.36
2022-10-18T06:34:12.570Z,15.22
2022-10-18T06:35:12.578Z,15.19
2022-10-18T06:36:12.577Z,15.26
2022-10-18T06:37:12.542Z,15.14
2022-10-18T06:38:12.650Z,15.15
2022-10-18T06:39:12.530Z,15.15
2022-10-18T06:40:12.512Z,15.19
2022-10-18T06:41:12.503Z,15.27
2022-10-18T06:42:12.491Z,15.17
2022-10-18T06:43:20.638Z,15.19
2022-10-18T06:44:13.498Z,15.15
2022-10-18T06:45:12.479Z,15.19
2022-10-18T06:46:12.485Z,15.26
2022-10-18T06:47:12.471Z,15.23
2022-10-18T06:48:12.493Z,15.23
2022-10-18T06:49:14.098Z,15.33
2022-10-18T06:50:12.439Z,15.36
2022-10-18T06:51:12.451Z,15.25
2022-10-18T06:52:12.437Z,15.26
2022-10-18T06:53:12.406Z,15.35
2022-10-18T06:54:17.831Z,15.38
2022-10-18T06:55:13.401Z,15.38
2022-10-18T06:56:12.382Z,15.35
2022-10-18T06:57:12.409Z,15.40
2022-10-18T06:58:12.389Z,15.32
2022-10-18T06:59:12.360Z,15.38
2022-10-18T07:00:12.371Z,15.44
2022-10-18T07:01:12.443Z,15.40
2022-10-18T07:02:12.335Z,15.40
2022-10-18T07:03:12.346Z,15.45
2022-10-18T07:04:12.436Z,15.47
2022-10-18T07:05:12.322Z,15.47
2022-10-18T07:06:12.302Z,15.48
2022-10-18T07:07:12.321Z,15.44
2022-10-18T07:08:12.288Z,15.54
2022-10-18T07:09:12.294Z,15.65
2022-10-18T07:10:13.093Z,15.72
2022-10-18T07:11:12.267Z,15.72
2022-10-18T07:12:12.245Z,15.72
2022-10-18T07:13:31.338Z,15.72
2022-10-18T07:14:16.298Z,15.70
2022-10-18T07:15:12.249Z,15.77
2022-10-18T07:16:14.294Z,15.76
2022-10-18T07:17:13.315Z,15.78
2022-10-18T07:18:12.216Z,15.77
2022-10-18T07:19:12.216Z,15.69
2022-10-18T07:20:12.202Z,15.77
2022-10-18T07:21:12.172Z,15.87
2022-10-18T07:22:12.170Z,15.95
2022-10-18T07:23:12.160Z,15.88
2022-10-18T07:24:12.156Z,15.95
2022-10-18T07:25:12.140Z,16.03
2022-10-18T07:26:12.159Z,15.90
2022-10-18T07:27:12.142Z,15.96
2022-10-18T07:28:12.125Z,16.03
2022-10-18T07:29:12.116Z,15.96
2022-10-18T07:30:12.106Z,16.10
2022-10-18T07:31:12.101Z,16.03
2022-10-18T07:32:12.117Z,16.13
2022-10-18T07:33:12.081Z,16.03
2022-10-18T07:34:12.075Z,15.93
2022-10-18T07:36:12.049Z,16.22
2022-10-18T07:37:12.048Z,16.36
2022-10-18T07:38:12.053Z,16.34
2022-10-18T07:39:12.030Z,16.36
2022-10-18T07:40:12.021Z,16.29
2022-10-18T07:41:12.053Z,16.17
2022-10-18T07:42:12.003Z,16.42
2022-10-18T07:43:12.390Z,16.51
2022-10-18T07:44:12.009Z,16.47
2022-10-18T07:45:12.142Z,16.55
2022-10-18T07:46:11.974Z,16.59
2022-10-18T07:47:11.988Z,16.61
2022-10-18T07:48:11.954Z,16.57
2022-10-18T07:49:12.000Z,16.54
2022-10-18T07:50:11.947Z,16.44
2022-10-18T07:51:11.931Z,16.47
2022-10-18T07:52:11.924Z,16.42
2022-10-18T07:53:11.913Z,16.37
2022-10-18T07:54:11.957Z,16.44
2022-10-18T07:55:11.911Z,16.47
2022-10-18T07:56:11.917Z,16.42
2022-10-18T07:57:11.896Z,16.42
2022-10-18T07:58:12.748Z,16.36
2022-10-18T07:59:11.866Z,16.32
2022-10-18T08:00:11.878Z,16.37
2022-10-18T08:01:11.886Z,16.36
2022-10-18T08:02:11.842Z,16.29
2022-10-18T08:03:11.836Z,16.28
2022-10-18T08:04:16.230Z,16.24
2022-10-18T08:05:11.826Z,16.18
2022-10-18T08:06:11.836Z,16.34
2022-10-18T08:07:11.842Z,16.37
2022-10-18T08:08:12.035Z,16.37
2022-10-18T08:09:11.836Z,16.24
2022-10-18T08:10:11.796Z,16.37
2022-10-18T08:11:11.784Z,16.34
2022-10-18T08:12:11.776Z,16.40
2022-10-18T08:13:11.791Z,16.42
2022-10-18T08:14:11.773Z,16.42
2022-10-18T08:15:11.746Z,16.55
2022-10-18T08:16:11.730Z,16.59
2022-10-18T08:17:11.728Z,16.46
2022-10-18T08:18:11.727Z,16.42
2022-10-18T08:19:11.727Z,16.32
2022-10-18T08:20:26.150Z,16.32
2022-10-18T08:21:12.714Z,16.37
2022-10-18T08:22:11.695Z,16.39
2022-10-18T08:23:11.676Z,16.54
2022-10-18T08:24:11.698Z,16.58
2022-10-18T08:25:11.686Z,16.64
2022-10-18T08:26:11.655Z,16.58
2022-10-18T08:27:11.651Z,16.65
2022-10-18T08:28:11.635Z,16.74
2022-10-18T08:29:23.016Z,16.65
2022-10-18T08:30:12.636Z,16.65
2022-10-18T08:31:11.608Z,16.84
2022-10-18T08:32:11.648Z,16.87
2022-10-18T08:33:11.587Z,16.80
2022-10-18T08:34:14.794Z,16.90
2022-10-18T08:35:12.581Z,16.90
2022-10-18T08:36:11.584Z,16.87
2022-10-18T08:37:11.555Z,16.82
2022-10-18T08:38:16.384Z,16.76
2022-10-18T08:39:12.557Z,16.91
2022-10-18T08:40:11.579Z,16.84
2022-10-18T08:41:11.529Z,16.98
2022-10-18T08:42:11.532Z,16.87
2022-10-18T08:43:11.510Z,16.82
2022-10-18T08:44:11.508Z,16.76
2022-10-18T08:45:17.766Z,16.72
2022-10-18T08:46:12.493Z,16.67
2022-10-18T08:47:11.507Z,16.62
2022-10-18T08:48:11.484Z,16.67
2022-10-18T08:49:11.453Z,16.65
2022-10-18T08:50:11.453Z,16.74
2022-10-18T08:51:11.439Z,16.87
2022-10-18T08:52:11.452Z,16.92
2022-10-18T08:53:11.425Z,16.83
2022-10-18T08:54:11.409Z,16.76
2022-10-18T08:55:11.418Z,16.62
2022-10-18T08:56:11.408Z,16.70
2022-10-18T08:57:11.395Z,16.73
2022-10-18T08:58:11.497Z,16.59
2022-10-18T08:59:11.369Z,16.67
2022-10-18T09:00:11.456Z,16.76
2022-10-18T09:01:11.365Z,16.64
2022-10-18T09:02:11.440Z,16.73
2022-10-18T09:03:11.381Z,16.83
2022-10-18T09:04:11.347Z,16.73
2022-10-18T09:05:13.212Z,16.67
2022-10-18T09:06:11.316Z,16.59
2022-10-18T09:07:11.312Z,16.46
2022-10-18T09:08:11.297Z,16.49
2022-10-18T09:09:11.337Z,16.54
2022-10-18T09:10:11.355Z,16.51
2022-10-18T09:11:11.266Z,16.40
2022-10-18T09:12:11.260Z,16.49
2022-10-18T09:13:11.248Z,16.54
2022-10-18T09:14:11.245Z,16.65
2022-10-18T09:15:11.236Z,16.59
2022-10-18T09:16:11.253Z,16.61
2022-10-18T09:17:15.831Z,16.59
2022-10-18T09:18:12.221Z,16.58
2022-10-18T09:19:11.213Z,16.44
2022-10-18T09:20:11.205Z,16.47
2022-10-18T09:21:11.186Z,16.52
2022-10-18T09:22:11.208Z,16.43
2022-10-18T09:23:11.208Z,16.33
2022-10-18T09:24:11.166Z,16.21
2022-10-18T09:25:11.172Z,16.17
2022-10-18T09:26:11.136Z,16.18
2022-10-18T09:27:11.131Z,16.21
2022-10-18T09:28:11.140Z,16.17
2022-10-18T09:29:11.268Z,16.18
2022-10-18T09:30:11.103Z,16.18
2022-10-18T09:31:11.096Z,16.09
2022-10-18T09:32:11.094Z,16.14
2022-10-18T09:33:11.117Z,16.22
2022-10-18T09:34:11.117Z,16.18
2022-10-18T09:35:11.078Z,16.26
2022-10-18T09:36:11.077Z,16.24
2022-10-18T09:37:11.055Z,16.26
2022-10-18T09:38:11.045Z,16.14
2022-10-18T09:39:11.051Z,16.26
2022-10-18T09:40:14.006Z,16.37
2022-10-18T09:41:12.014Z,16.29
2022-10-18T09:42:11.015Z,16.24
2022-10-18T09:43:11.017Z,16.10
2022-10-18T09:44:10.994Z,16.08
2022-10-18T09:45:10.997Z,16.02
2022-10-18T09:46:11.013Z,16.00
2022-10-18T09:47:14.601Z,16.13
2022-10-18T09:48:11.958Z,16.16
2022-10-18T09:49:13.030Z,16.21
2022-10-18T09:50:11.998Z,16.25
2022-10-18T09:51:10.943Z,16.24
2022-10-18T09:52:10.971Z,16.18
2022-10-18T09:53:10.932Z,16.13
2022-10-18T09:54:10.910Z,16.16
2022-10-18T09:55:10.911Z,16.02
2022-10-18T09:56:10.906Z,16.05
2022-10-18T09:57:10.889Z,16.08
2022-10-18T09:58:11.113Z,16.08
2022-10-18T09:59:10.865Z,16.16
2022-10-18T10:00:10.852Z,16.18
2022-10-18T10:01:10.865Z,16.14
2022-10-18T10:02:10.922Z,16.21
2022-10-18T10:03:10.862Z,16.24
2022-10-18T10:04:10.856Z,16.24
2022-10-18T10:06:10.842Z,16.22
2022-10-18T10:07:10.831Z,16.33
2022-10-18T10:08:10.792Z,16.39
2022-10-18T10:09:10.823Z,16.51
2022-10-18T10:10:10.801Z,16.54
2022-10-18T10:11:10.765Z,16.54
2022-10-18T10:12:10.785Z,16.47
2022-10-18T10:13:10.756Z,16.47
2022-10-18T10:14:10.805Z,16.34
2022-10-18T10:15:10.740Z,16.26
2022-10-18T10:16:10.755Z,16.08
2022-10-18T10:17:10.731Z,16.09
2022-10-18T10:18:10.713Z,16.05
2022-10-18T10:19:10.705Z,15.95
2022-10-18T10:20:10.701Z,16.05
2022-10-18T10:21:10.836Z,16.24
2022-10-18T10:22:10.697Z,16.40
2022-10-18T10:23:10.756Z,16.54
2022-10-18T10:24:10.665Z,16.57
2022-10-18T10:25:10.662Z,16.58
2022-10-18T10:26:10.646Z,16.64
2022-10-18T10:27:10.644Z,16.58
2022-10-18T10:28:10.883Z,16.42
2022-10-18T10:29:17.422Z,16.42
2022-10-18T10:30:11.640Z,16.62
2022-10-18T10:31:10.609Z,16.51
2022-10-18T10:32:10.605Z,16.54
2022-10-18T10:33:10.596Z,16.58
2022-10-18T10:34:10.605Z,16.65
2022-10-18T10:35:18.306Z,16.64
2022-10-18T10:36:11.571Z,16.58
2022-10-18T10:37:10.566Z,16.72
2022-10-18T10:38:10.567Z,16.74
2022-10-18T10:39:10.531Z,16.77
2022-10-18T10:40:19.360Z,16.91
2022-10-18T10:41:11.528Z,16.69
2022-10-18T10:42:11.511Z,16.52
2022-10-18T10:43:19.610Z,16.62
2022-10-18T10:44:11.550Z,16.73
2022-10-18T10:45:10.888Z,16.69
2022-10-18T10:46:10.488Z,16.69
2022-10-18T10:47:10.480Z,16.80
2022-10-18T10:48:10.517Z,16.91
2022-10-18T10:50:11.485Z,17.07
2022-10-18T10:51:10.455Z,16.82
2022-10-18T10:52:26.369Z,16.87
2022-10-18T10:53:11.442Z,16.91
2022-10-18T10:54:10.472Z,16.97
2022-10-18T10:55:30.844Z,17.07
2022-10-18T10:56:15.799Z,17.17
2022-10-18T10:57:10.398Z,17.25
2022-10-18T10:58:10.389Z,17.24
2022-10-18T10:59:10.458Z,17.06
2022-10-18T11:00:10.392Z,17.30
2022-10-18T11:01:11.376Z,17.14
2022-10-18T11:02:10.372Z,17.12
2022-10-18T11:03:27.389Z,16.92
2022-10-18T11:04:11.566Z,17.04
2022-10-18T11:05:10.346Z,17.24
2022-10-18T11:06:10.335Z,17.35
2022-10-18T11:07:10.332Z,17.47
2022-10-18T11:08:10.361Z,17.47
2022-10-18T11:09:10.301Z,17.46
2022-10-18T11:10:10.314Z,17.62
2022-10-18T11:11:10.285Z,17.75
2022-10-18T11:12:10.285Z,17.81
2022-10-18T11:13:10.278Z,17.52
2022-10-18T11:14:26.888Z,17.28
2022-10-18T11:15:11.279Z,17.31
2022-10-18T11:16:10.248Z,17.35
2022-10-18T11:17:10.248Z,17.39
2022-10-18T11:18:10.242Z,17.41
2022-10-18T11:19:10.229Z,17.27
2022-10-18T11:20:10.227Z,17.35
2022-10-18T11:21:10.245Z,17.37
2022-10-18T11:22:10.209Z,17.37
2022-10-18T11:23:10.200Z,17.47
2022-10-18T11:24:10.874Z,17.68
2022-10-18T11:25:10.173Z,17.79
2022-10-18T11:26:10.175Z,17.71
2022-10-18T11:27:10.184Z,17.71
2022-10-18T11:28:10.152Z,17.87
2022-10-18T11:29:10.139Z,17.76
2022-10-18T11:30:10.148Z,17.87
2022-10-18T11:31:10.128Z,17.72
2022-10-18T11:32:10.124Z,17.93
2022-10-18T11:33:10.167Z,17.69
2022-10-18T11:34:11.202Z,17.73
2022-10-18T11:35:10.710Z,17.83
2022-10-18T11:36:10.114Z,17.81
2022-10-18T11:37:27.071Z,17.96
2022-10-18T11:38:11.098Z,18.26
2022-10-18T11:39:10.068Z,18.58
2022-10-18T11:40:11.244Z,18.79
2022-10-18T11:41:10.040Z,18.75
2022-10-18T11:42:10.162Z,18.75
2022-10-18T11:43:10.044Z,18.89
2022-10-18T11:44:10.031Z,18.83
2022-10-18T11:45:10.100Z,18.56
2022-10-18T11:46:10.446Z,18.48
2022-10-18T11:47:10.027Z,18.57
2022-10-18T11:48:09.990Z,18.74
2022-10-18T11:49:10.887Z,18.71
2022-10-18T11:50:09.998Z,18.93
2022-10-18T11:51:10.821Z,19.07
2022-10-18T11:52:10.069Z,19.30
2022-10-18T11:53:09.984Z,19.49
2022-10-18T11:54:10.000Z,19.62
2022-10-18T11:55:09.940Z,20.27
2022-10-18T11:56:09.931Z,21.05
2022-10-18T11:57:09.931Z,22.38
2022-10-18T11:58:09.915Z,22.99
2022-10-18T11:59:09.903Z,22.21
2022-10-18T12:00:10.862Z,21.50
2022-10-18T12:01:09.890Z,22.11
2022-10-18T12:02:10.093Z,22.30
2022-10-18T12:03:10.027Z,22.06
2022-10-18T12:04:09.873Z,21.66
2022-10-18T12:05:23.245Z,21.43
2022-10-18T12:06:11.229Z,21.37
2022-10-18T12:07:09.856Z,20.44
2022-10-18T12:08:09.841Z,19.82
2022-10-18T12:09:10.035Z,19.16
2022-10-18T12:10:10.211Z,18.52
2022-10-18T12:11:09.816Z,18.42
2022-10-18T12:12:09.809Z,18.70
2022-10-18T12:13:09.801Z,19.00
2022-10-18T12:14:10.154Z,19.37
2022-10-18T12:15:09.805Z,19.70
2022-10-18T12:16:09.778Z,20.71
2022-10-18T12:18:10.774Z,21.41
2022-10-18T12:19:09.761Z,20.82
2022-10-18T12:20:09.796Z,21.59
2022-10-18T12:21:09.910Z,21.30
2022-10-18T12:22:09.754Z,20.79
2022-10-18T12:23:09.730Z,20.30
2022-10-18T12:24:09.703Z,18.97
2022-10-18T12:25:09.689Z,18.28
2022-10-18T12:26:09.732Z,18.51
2022-10-18T12:27:09.988Z,19.01
2022-10-18T12:28:09.674Z,19.15
2022-10-18T12:29:09.682Z,18.97
2022-10-18T12:30:09.758Z,18.91
2022-10-18T12:31:09.667Z,18.94
2022-10-18T12:32:09.650Z,19.38
2022-10-18T12:33:27.343Z,19.30
2022-10-18T12:34:10.634Z,19.72
2022-10-18T12:35:09.675Z,19.59
2022-10-18T12:36:09.597Z,18.91
2022-10-18T12:37:09.731Z,18.96
2022-10-18T12:38:09.671Z,18.96
2022-10-18T12:39:09.761Z,19.96
2022-10-18T12:40:12.492Z,21.00
2022-10-18T12:41:09.651Z,21.93
2022-10-18T12:42:09.555Z,22.00
2022-10-18T12:43:09.552Z,21.50
2022-10-18T12:44:09.540Z,20.63
2022-10-18T12:45:09.548Z,20.79
2022-10-18T12:46:13.532Z,21.32
2022-10-18T12:47:09.514Z,21.66
2022-10-18T12:48:09.509Z,21.67
2022-10-18T12:49:09.497Z,21.50
2022-10-18T12:50:09.520Z,21.05
2022-10-18T12:51:09.534Z,20.74
2022-10-18T12:52:09.687Z,20.89
2022-10-18T12:53:09.465Z,20.68
2022-10-18T12:54:09.615Z,20.73
2022-10-18T12:55:12.776Z,21.07
2022-10-18T12:56:10.465Z,20.90
2022-10-18T12:57:09.428Z,20.93
2022-10-18T12:58:09.475Z,21.26
2022-10-18T13:02:02.540Z,20.12